createdAt,value
2023-05-25T00:02:27.369Z,21.77
2023-05-25T00:05:29.568Z,22.17
2023-05-25T00:08:31.606Z,18.93
2023-05-25T00:11:34.190Z,22.10
2023-05-25T00:14:37.003Z,21.27
2023-05-25T00:17:39.130Z,20.80
2023-05-25T00:20:41.254Z,20.07
2023-05-25T00:23:43.516Z,21.63
2023-05-25T00:26:45.570Z,19.77
2023-05-25T00:29:47.510Z,19.87
2023-05-25T00:32:49.516Z,20.60
2023-05-25T00:35:52.812Z,20.80
2023-05-25T00:38:55.340Z,19.90
2023-05-25T00:41:58.051Z,20.03
2023-05-25T00:45:00.534Z,22.13
2023-05-25T00:48:04.451Z,21.20
2023-05-25T00:51:06.695Z,22.60
2023-05-25T00:54:08.691Z,21.13
2023-05-25T00:57:11.204Z,22.20
2023-05-25T01:00:14.727Z,24.43
2023-05-25T01:03:22.164Z,20.27
2023-05-25T01:06:27.194Z,25.07
2023-05-25T01:09:30.351Z,19.90
2023-05-25T01:12:37.697Z,18.97
2023-05-25T01:15:39.975Z,16.93
2023-05-25T01:18:42.239Z,18.50
2023-05-25T01:21:56.729Z,19.83
2023-05-25T01:25:03.636Z,16.17
2023-05-25T01:28:16.228Z,20.13
2023-05-25T01:31:19.600Z,22.40
2023-05-25T01:34:21.758Z,19.63
2023-05-25T01:37:27.029Z,20.00
2023-05-25T01:40:29.557Z,21.40
2023-05-25T01:43:31.951Z,22.57
2023-05-25T01:46:38.233Z,23.70
2023-05-25T01:50:07.250Z,24.00
2023-05-25T01:53:34.752Z,23.63
2023-05-25T01:56:37.238Z,21.07
2023-05-25T01:59:39.617Z,21.97
2023-05-25T02:02:43.555Z,27.23
2023-05-25T02:05:46.542Z,23.53
2023-05-25T02:08:48.856Z,22.70
2023-05-25T02:11:50.766Z,20.97
2023-05-25T02:14:52.725Z,22.70
2023-05-25T02:17:58.095Z,21.77
2023-05-25T02:21:00.216Z,23.83
2023-05-25T02:24:02.385Z,20.70
2023-05-25T02:27:07.776Z,24.93
2023-05-25T02:30:10.062Z,21.67
2023-05-25T02:33:12.436Z,18.33
2023-05-25T02:36:14.385Z,23.53
2023-05-25T02:39:16.721Z,21.40
2023-05-25T02:42:19.539Z,22.03
2023-05-25T02:45:21.989Z,23.47
2023-05-25T02:48:23.946Z,23.77
2023-05-25T02:51:27.358Z,20.80
2023-05-25T02:54:29.248Z,26.27
2023-05-25T02:57:32.035Z,21.20
2023-05-25T03:00:34.055Z,19.87
2023-05-25T03:03:36.674Z,21.37
2023-05-25T03:06:38.728Z,23.17
2023-05-25T03:09:40.770Z,26.30
2023-05-25T03:12:42.758Z,23.07
2023-05-25T03:15:45.035Z,24.80
2023-05-25T03:18:47.207Z,22.07
2023-05-25T03:21:49.203Z,23.80
2023-05-25T03:24:51.603Z,23.33
2023-05-25T03:27:55.243Z,21.73
2023-05-25T03:30:58.028Z,26.40
2023-05-25T03:34:00.432Z,22.87
2023-05-25T03:37:02.436Z,23.63
2023-05-25T03:40:05.277Z,22.97
2023-05-25T03:43:07.198Z,23.77
2023-05-25T03:46:12.095Z,22.47
2023-05-25T03:49:14.365Z,22.73
2023-05-25T03:52:16.721Z,22.37
2023-05-25T03:55:19.708Z,20.60
2023-05-25T03:58:22.011Z,30.93
2023-05-25T04:01:26.649Z,21.80
2023-05-25T04:04:30.507Z,26.13
2023-05-25T04:07:32.937Z,23.97
2023-05-25T04:10:34.970Z,29.30
2023-05-25T04:13:37.136Z,26.37
2023-05-25T04:16:41.592Z,28.03
2023-05-25T04:19:43.756Z,23.00
2023-05-25T04:22:45.775Z,22.47
2023-05-25T04:25:47.871Z,20.77
2023-05-25T04:28:49.919Z,22.77
2023-05-25T04:31:51.959Z,27.60
2023-05-25T04:34:53.917Z,26.97
2023-05-25T04:37:57.298Z,23.33
2023-05-25T04:41:02.234Z,24.50
2023-05-25T04:44:09.621Z,21.03
2023-05-25T04:47:12.918Z,20.47
2023-05-25T04:50:14.936Z,19.60
2023-05-25T04:53:17.144Z,25.43
2023-05-25T04:56:19.954Z,19.40
2023-05-25T04:59:22.024Z,19.93
2023-05-25T05:02:24.836Z,20.00
2023-05-25T05:05:27.278Z,25.23
2023-05-25T05:08:29.809Z,20.27
2023-05-25T05:11:31.803Z,23.07
2023-05-25T05:14:34.368Z,17.73
2023-05-25T05:17:36.559Z,22.63
2023-05-25T05:20:38.750Z,19.97
2023-05-25T05:23:43.154Z,19.27
2023-05-25T05:26:57.446Z,24.47
2023-05-25T05:30:01.133Z,24.27
2023-05-25T05:33:03.602Z,22.37
2023-05-25T05:36:05.946Z,24.77
2023-05-25T05:39:10.672Z,23.07
2023-05-25T05:42:13.031Z,16.60
2023-05-25T05:45:15.218Z,21.67
2023-05-25T05:48:17.196Z,22.90
2023-05-25T05:51:19.310Z,24.60
2023-05-25T05:54:21.439Z,22.47
2023-05-25T05:57:23.439Z,23.07
2023-05-25T06:00:25.693Z,24.63
2023-05-25T06:03:31.495Z,25.77
2023-05-25T06:06:35.323Z,22.50
2023-05-25T06:09:37.909Z,21.90
2023-05-25T06:12:39.864Z,21.30
2023-05-25T06:15:42.568Z,18.53
2023-05-25T06:18:44.834Z,19.33
2023-05-25T06:21:47.018Z,22.70
2023-05-25T06:24:49.018Z,20.77
2023-05-25T06:27:51.242Z,18.90
2023-05-25T06:30:53.247Z,20.40
2023-05-25T06:33:56.115Z,22.83
2023-05-25T06:36:58.042Z,23.40
2023-05-25T06:40:00.246Z,22.93
2023-05-25T06:43:02.248Z,22.93
2023-05-25T06:46:04.967Z,20.77
2023-05-25T06:49:07.042Z,23.07
2023-05-25T06:52:09.034Z,17.80
2023-05-25T06:55:11.335Z,20.83
2023-05-25T06:58:13.572Z,18.63
2023-05-25T07:01:16.226Z,18.60
2023-05-25T07:04:18.288Z,18.93
2023-05-25T07:07:20.300Z,17.30
2023-05-25T07:10:24.031Z,17.20
2023-05-25T07:13:26.251Z,16.30
2023-05-25T07:16:28.352Z,22.63
2023-05-25T07:19:30.405Z,14.83
2023-05-25T07:22:32.446Z,14.13
2023-05-25T07:25:34.406Z,14.07
2023-05-25T07:28:36.509Z,13.90
2023-05-25T07:31:38.728Z,11.70
2023-05-25T07:34:41.634Z,11.13
2023-05-25T07:37:43.842Z,12.70
2023-05-25T07:40:47.932Z,16.63
2023-05-25T07:43:49.870Z,15.50
2023-05-25T07:46:51.910Z,24.07
2023-05-25T07:49:54.469Z,17.40
2023-05-25T07:52:58.869Z,12.83
2023-05-25T07:56:01.011Z,12.93
2023-05-25T07:59:03.092Z,12.87
2023-05-25T08:02:05.251Z,13.93
2023-05-25T08:05:07.778Z,12.10
2023-05-25T08:08:10.990Z,15.30
2023-05-25T08:11:13.066Z,10.73
2023-05-25T08:14:15.124Z,13.57
2023-05-25T08:17:17.318Z,11.40
2023-05-25T08:20:19.394Z,9.83
2023-05-25T08:23:22.739Z,11.00
2023-05-25T08:26:38.364Z,13.50
2023-05-25T08:29:46.692Z,14.17
2023-05-25T08:32:48.658Z,10.80
2023-05-25T08:35:53.104Z,8.90
2023-05-25T08:38:55.066Z,10.07
2023-05-25T08:41:57.523Z,11.47
2023-05-25T08:44:59.685Z,9.87
2023-05-25T08:48:02.589Z,8.67
2023-05-25T08:51:10.789Z,7.37
2023-05-25T08:54:14.696Z,10.07
2023-05-25T08:57:16.720Z,10.60
2023-05-25T09:00:22.483Z,6.77
2023-05-25T09:03:24.911Z,8.13
2023-05-25T09:06:29.058Z,8.83
2023-05-25T09:09:31.677Z,8.00
2023-05-25T09:12:34.701Z,9.57
2023-05-25T09:15:36.683Z,9.17
2023-05-25T09:18:40.766Z,8.23
2023-05-25T09:21:43.965Z,9.40
2023-05-25T09:24:46.978Z,10.47
2023-05-25T09:27:49.609Z,11.15
2023-05-25T09:30:51.650Z,12.65
2023-05-25T09:34:00.581Z,12.20
2023-05-25T09:37:21.129Z,10.05
2023-05-25T09:40:23.280Z,11.30
2023-05-25T09:43:40.210Z,7.55
2023-05-25T09:46:45.187Z,9.48
2023-05-25T09:49:49.670Z,9.32
2023-05-25T09:52:52.720Z,9.02
2023-05-25T09:55:56.048Z,9.30
2023-05-25T09:58:58.629Z,11.00
2023-05-25T10:02:01.063Z,10.35
2023-05-25T10:05:05.125Z,10.68
2023-05-25T10:08:08.234Z,10.55
2023-05-25T10:11:12.140Z,10.20
2023-05-25T10:14:16.345Z,14.60
2023-05-25T10:17:21.860Z,12.02
2023-05-25T10:20:28.316Z,12.25
2023-05-25T10:23:37.696Z,10.77
2023-05-25T10:26:43.311Z,10.80
2023-05-25T10:29:48.160Z,9.95
2023-05-25T10:32:50.512Z,9.57
2023-05-25T10:36:03.098Z,11.05
2023-05-25T10:39:12.162Z,12.02
2023-05-25T10:42:14.165Z,12.25
2023-05-25T10:45:17.099Z,13.07
2023-05-25T10:48:19.186Z,13.02
2023-05-25T10:51:23.268Z,11.60
2023-05-25T10:54:29.430Z,11.80
2023-05-25T10:57:31.887Z,11.52
2023-05-25T11:00:34.029Z,11.82
2023-05-25T11:03:45.679Z,12.80
2023-05-25T11:06:48.158Z,12.55
2023-05-25T11:09:59.632Z,12.63
2023-05-25T11:13:24.378Z,12.65
2023-05-25T11:16:35.045Z,12.38
2023-05-25T11:19:43.564Z,12.27
2023-05-25T11:22:45.600Z,12.13
2023-05-25T11:25:47.722Z,11.60
2023-05-25T11:28:51.530Z,15.18
2023-05-25T11:31:55.391Z,12.27
2023-05-25T11:34:59.093Z,9.73
2023-05-25T11:38:01.540Z,12.93
2023-05-25T11:41:07.922Z,11.88
2023-05-25T11:44:11.361Z,12.95
2023-05-25T11:47:14.927Z,9.95
2023-05-25T11:50:19.532Z,13.20
2023-05-25T11:53:21.841Z,11.52
2023-05-25T11:56:34.315Z,10.63
2023-05-25T11:59:39.932Z,10.52
2023-05-25T12:02:42.218Z,11.05
2023-05-25T12:05:44.766Z,11.02
2023-05-25T12:08:46.904Z,9.70
2023-05-25T12:11:49.369Z,8.80
2023-05-25T12:14:52.161Z,10.77
2023-05-25T12:17:54.592Z,9.70
2023-05-25T12:20:57.482Z,8.73
2023-05-25T12:24:01.850Z,8.55
2023-05-25T12:27:06.104Z,13.40
2023-05-25T12:30:09.693Z,9.73
2023-05-25T12:33:13.937Z,11.07
2023-05-25T12:36:16.099Z,9.60
2023-05-25T12:39:32.184Z,7.32
2023-05-25T12:42:34.612Z,9.05
2023-05-25T12:45:40.822Z,10.93
2023-05-25T12:48:42.838Z,9.65
2023-05-25T12:51:44.795Z,7.93
2023-05-25T12:54:47.531Z,10.30
2023-05-25T12:57:55.359Z,9.90
2023-05-25T13:00:57.411Z,8.88
2023-05-25T13:03:59.365Z,10.18
2023-05-25T13:07:01.788Z,11.73
2023-05-25T13:10:03.819Z,8.07
2023-05-25T13:13:06.132Z,11.88
2023-05-25T13:16:08.167Z,8.80
2023-05-25T13:19:10.356Z,10.13
2023-05-25T13:22:12.229Z,11.55
2023-05-25T13:25:14.868Z,10.88
2023-05-25T13:28:16.818Z,12.15
2023-05-25T13:31:18.855Z,12.88
2023-05-25T13:34:20.934Z,10.18
2023-05-25T13:37:22.930Z,11.43
2023-05-25T13:40:24.904Z,13.30
2023-05-25T13:43:27.173Z,17.95
2023-05-25T13:46:34.772Z,12.23
2023-05-25T13:49:37.277Z,10.57
2023-05-25T13:52:39.613Z,12.05
2023-05-25T13:55:41.518Z,13.63
2023-05-25T13:58:43.600Z,12.52
2023-05-25T14:01:45.679Z,9.20
2023-05-25T14:04:47.690Z,10.68
2023-05-25T14:07:49.656Z,10.38
2023-05-25T14:10:52.636Z,9.75
2023-05-25T14:13:54.592Z,10.55
2023-05-25T14:16:56.578Z,9.07
2023-05-25T14:19:59.070Z,13.63
2023-05-25T14:23:02.165Z,10.35
2023-05-25T14:26:05.356Z,13.57
2023-05-25T14:29:09.826Z,9.88
2023-05-25T14:32:14.629Z,10.75
2023-05-25T14:35:16.952Z,9.70
2023-05-25T14:38:18.866Z,12.45
2023-05-25T14:41:23.077Z,11.48
2023-05-25T14:44:25.091Z,9.70
2023-05-25T14:47:27.077Z,9.23
2023-05-25T14:50:30.389Z,8.88
2023-05-25T14:53:32.596Z,10.48
2023-05-25T14:56:35.210Z,9.95
2023-05-25T14:59:37.233Z,10.18
2023-05-25T15:02:39.326Z,10.65
2023-05-25T15:05:41.366Z,10.70
2023-05-25T15:08:43.338Z,9.50
2023-05-25T15:11:45.392Z,8.02
2023-05-25T15:14:47.330Z,7.38
2023-05-25T15:17:49.362Z,8.02
2023-05-25T15:20:51.531Z,8.55
2023-05-25T15:23:53.476Z,9.15
2023-05-25T15:26:55.636Z,8.50
2023-05-25T15:29:57.624Z,9.90
2023-05-25T15:32:59.731Z,10.70
2023-05-25T15:36:01.814Z,7.63
2023-05-25T15:39:06.353Z,8.85
2023-05-25T15:42:08.671Z,11.02
2023-05-25T15:45:11.222Z,8.50
2023-05-25T15:48:13.309Z,11.32
2023-05-25T15:51:15.731Z,8.00
2023-05-25T15:54:17.726Z,7.00
2023-05-25T15:57:19.619Z,7.88
2023-05-25T16:00:21.956Z,7.60
2023-05-25T16:03:23.904Z,9.02
2023-05-25T16:06:26.061Z,7.47
2023-05-25T16:09:28.003Z,7.93
2023-05-25T16:12:30.724Z,7.53
2023-05-25T16:15:32.687Z,8.70
2023-05-25T16:18:34.948Z,8.48
2023-05-25T16:21:38.302Z,8.75
2023-05-25T16:24:40.463Z,8.95
2023-05-25T16:27:42.453Z,11.55
2023-05-25T16:30:44.853Z,8.27
2023-05-25T16:33:46.983Z,7.70
2023-05-25T16:36:49.351Z,9.38
2023-05-25T16:39:51.226Z,7.70
2023-05-25T16:42:53.304Z,8.10
2023-05-25T16:45:55.304Z,9.00
2023-05-25T16:48:57.412Z,10.68
2023-05-25T16:51:59.528Z,10.32
2023-05-25T16:55:02.142Z,10.63
2023-05-25T16:58:04.176Z,10.95
2023-05-25T17:01:06.369Z,12.32
2023-05-25T17:04:08.504Z,9.75
2023-05-25T17:07:10.699Z,9.88
2023-05-25T17:10:12.648Z,8.20
2023-05-25T17:13:14.775Z,7.85
2023-05-25T17:16:16.821Z,10.10
2023-05-25T17:19:18.947Z,10.90
2023-05-25T17:22:21.104Z,11.32
2023-05-25T17:25:23.584Z,11.82
2023-05-25T17:28:26.642Z,17.27
2023-05-25T17:31:28.649Z,16.50
2023-05-25T17:34:31.066Z,11.80
2023-05-25T17:37:33.567Z,9.23
2023-05-25T17:40:35.598Z,10.48
2023-05-25T17:43:37.499Z,11.63
2023-05-25T17:46:39.983Z,8.60
2023-05-25T17:49:42.183Z,9.50
2023-05-25T17:52:44.244Z,8.15
2023-05-25T17:55:46.442Z,9.18
2023-05-25T17:58:49.008Z,8.98
2023-05-25T18:01:54.128Z,10.93
2023-05-25T18:04:56.755Z,8.15
2023-05-25T18:07:58.668Z,10.30
2023-05-25T18:11:00.974Z,8.20
2023-05-25T18:14:05.905Z,8.90
2023-05-25T18:17:08.168Z,8.23
2023-05-25T18:20:11.535Z,8.65
2023-05-25T18:23:13.532Z,7.75
2023-05-25T18:26:16.004Z,12.68
2023-05-25T18:29:18.076Z,9.50
2023-05-25T18:32:20.834Z,13.60
2023-05-25T18:35:22.974Z,8.13
2023-05-25T18:38:24.976Z,9.53
2023-05-25T18:41:29.233Z,7.83
2023-05-25T18:44:31.936Z,12.43
2023-05-25T18:47:34.233Z,10.67
2023-05-25T18:50:37.995Z,10.93
2023-05-25T18:53:41.873Z,8.43
2023-05-25T18:56:44.020Z,9.73
2023-05-25T18:59:46.886Z,9.50
2023-05-25T19:02:49.093Z,12.60
2023-05-25T19:05:52.332Z,10.13
2023-05-25T19:08:55.549Z,8.93
2023-05-25T19:11:57.566Z,9.17
2023-05-25T19:14:59.874Z,8.83
2023-05-25T19:18:06.189Z,9.20
2023-05-25T19:21:08.368Z,9.53
2023-05-25T19:24:11.973Z,11.60
2023-05-25T19:27:14.576Z,10.10
2023-05-25T19:30:16.658Z,11.63
2023-05-25T19:33:18.678Z,8.10
2023-05-25T19:36:21.221Z,8.97
2023-05-25T19:39:23.924Z,10.73
2023-05-25T19:42:26.134Z,10.33
2023-05-25T19:45:28.501Z,8.47
2023-05-25T19:48:31.302Z,11.50
2023-05-25T19:51:33.250Z,9.43
2023-05-25T19:54:35.408Z,9.57
2023-05-25T19:57:38.661Z,9.43
2023-05-25T20:00:40.998Z,8.40
2023-05-25T20:03:45.586Z,9.53
2023-05-25T20:06:48.516Z,11.27
2023-05-25T20:09:50.537Z,10.40
2023-05-25T20:12:52.519Z,7.90
2023-05-25T20:15:54.465Z,9.63
2023-05-25T20:18:56.972Z,9.87
2023-05-25T20:22:01.132Z,8.37
2023-05-25T20:25:03.165Z,7.97
2023-05-25T20:28:05.671Z,7.23
2023-05-25T20:31:08.935Z,10.00
2023-05-25T20:34:10.966Z,13.40
2023-05-25T20:37:13.546Z,8.00
2023-05-25T20:40:15.802Z,10.30
2023-05-25T20:43:18.088Z,7.53
2023-05-25T20:46:20.135Z,10.80
2023-05-25T20:49:24.452Z,7.87
2023-05-25T20:52:29.901Z,9.90
2023-05-25T20:55:32.512Z,10.03
2023-05-25T20:58:34.797Z,7.87
2023-05-25T21:01:37.225Z,8.43
2023-05-25T21:04:39.191Z,10.93
2023-05-25T21:07:43.561Z,10.07
2023-05-25T21:10:48.592Z,11.30
2023-05-25T21:13:50.657Z,10.40
2023-05-25T21:16:52.640Z,8.27
2023-05-25T21:19:55.112Z,8.30
2023-05-25T21:22:57.261Z,11.33
2023-05-25T21:25:59.431Z,10.83
2023-05-25T21:29:01.383Z,7.97
2023-05-25T21:32:03.557Z,9.03
2023-05-25T21:35:05.826Z,9.10
2023-05-25T21:38:07.892Z,10.87
2023-05-25T21:41:09.922Z,8.23
2023-05-25T21:44:12.418Z,8.77
2023-05-25T21:47:14.594Z,7.97
2023-05-25T21:50:16.900Z,7.40
2023-05-25T21:53:20.216Z,7.70
2023-05-25T21:56:23.372Z,8.90
2023-05-25T21:59:25.837Z,7.87
2023-05-25T22:02:27.873Z,8.40
2023-05-25T22:05:34.527Z,10.53
2023-05-25T22:08:36.619Z,10.73
2023-05-25T22:11:40.288Z,8.40
2023-05-25T22:14:42.286Z,7.67
2023-05-25T22:17:44.317Z,11.97
2023-05-25T22:20:46.415Z,11.10
2023-05-25T22:23:48.754Z,10.63
2023-05-25T22:26:51.153Z,10.17
2023-05-25T22:29:53.008Z,9.63
2023-05-25T22:32:55.518Z,8.83
2023-05-25T22:35:57.565Z,8.37
2023-05-25T22:38:59.594Z,7.13
2023-05-25T22:42:02.420Z,11.53
2023-05-25T22:45:05.270Z,7.57
2023-05-25T22:48:08.298Z,10.73
2023-05-25T22:51:10.523Z,11.87
2023-05-25T22:54:13.449Z,10.03
2023-05-25T22:57:15.894Z,8.20
2023-05-25T23:00:18.128Z,9.33
2023-05-25T23:03:20.353Z,9.07
2023-05-25T23:06:22.572Z,9.17
2023-05-25T23:09:24.609Z,11.77
2023-05-25T23:12:26.594Z,10.97
2023-05-25T23:15:29.035Z,8.33
2023-05-25T23:18:31.197Z,8.53
2023-05-25T23:21:33.955Z,7.97
2023-05-25T23:24:36.008Z,8.27
2023-05-25T23:27:38.358Z,10.03
2023-05-25T23:30:40.279Z,7.67
2023-05-25T23:33:42.217Z,10.43
2023-05-25T23:36:44.550Z,8.37
2023-05-25T23:39:47.148Z,10.03
2023-05-25T23:42:49.144Z,12.20
2023-05-25T23:45:51.128Z,9.70
2023-05-25T23:48:53.190Z,7.40
2023-05-25T23:51:55.084Z,9.03
2023-05-25T23:54:57.190Z,8.63
2023-05-25T23:57:59.227Z,10.53
